Time;durP1;ratioP1;P1;durP2;ratioP2;P2;SDS_P1;SDS_P2;PMS_P1;PMS_P2;Temp;Humidity;BMP_temperature;BMP_pressure;BME280_temperature;BME280_humidity;BME280_pressure;Samples;Min_cycle;Max_cycle;Signal;HPM_P1;HPM_P2
2024/01/30 00:01:11;;;;;;;;;;;51.70;2227.20;;;;;;5094855;28;19915;-78
2024/01/30 00:03:37;;;;;;;;;;;51.60;2227.20;;;;;;5093203;28;19915;-77
2024/01/30 00:06:03;;;;;;;;;;;51.60;2227.20;;;;;;5093527;28;19935;-77
2024/01/30 00:08:28;;;;;;;;;;;51.60;2227.20;;;;;;5085882;28;19919;-77
2024/01/30 00:10:54;;;;;;;;;;;51.50;2227.20;;;;;;5086405;28;19904;-77
2024/01/30 00:13:20;;;;;;;;;;;51.80;2227.20;;;;;;5088001;28;19912;-77
2024/01/30 00:15:45;;;;;;;;;;;51.60;2227.20;;;;;;5094833;28;19953;-76
2024/01/30 00:18:11;;;;;;;;;;;51.50;2227.20;;;;;;5088143;28;19968;-78
2024/01/30 00:20:37;;;;;;;;;;;51.30;2227.20;;;;;;5095647;28;19914;-76
2024/01/30 00:23:02;;;;;;;;;;;51.40;2227.20;;;;;;5096666;28;19964;-77
2024/01/30 00:25:28;;;;;;;;;;;51.40;2227.20;;;;;;5088412;28;19906;-77
2024/01/30 00:27:53;;;;;;;;;;;51.30;2227.20;;;;;;5088329;28;19916;-77
2024/01/30 00:30:20;;;;;;;;;;;51.50;2227.20;;;;;;5087482;28;19953;-77
2024/01/30 00:32:45;;;;;;;;;;;51.30;2227.20;;;;;;5093950;28;19908;-78
2024/01/30 00:35:11;;;;;;;;;;;51.20;2227.20;;;;;;5092241;28;20280;-76
2024/01/30 00:37:37;;;;;;;;;;;26.50;2201.60;;;;;;5088747;28;19912;-76
2024/01/30 00:40:02;;;;;;;;;;;26.40;2201.60;;;;;;5106417;28;19915;-77
2024/01/30 00:42:28;;;;;;;;;;;26.40;2201.60;;;;;;5093444;28;19973;-77
2024/01/30 00:44:54;;;;;;;;;;;26.40;2201.60;;;;;;5087930;28;19918;-77
2024/01/30 00:47:19;;;;;;;;;;;26.50;2201.60;;;;;;5103341;28;19915;-77
2024/01/30 00:49:45;;;;;;;;;;;51.30;2227.20;;;;;;5091193;28;20006;-79
2024/01/30 00:52:11;;;;;;;;;;;51.50;2227.20;;;;;;5112096;28;20419;-79
2024/01/30 00:54:37;;;;;;;;;;;51.70;2227.20;;;;;;5110167;28;19943;-77
2024/01/30 00:57:03;;;;;;;;;;;51.80;2227.20;;;;;;5115275;28;19986;-77
2024/01/30 00:59:28;;;;;;;;;;;52.00;2227.20;;;;;;5112241;28;19907;-77
2024/01/30 01:01:54;;;;;;;;;;;51.90;2227.20;;;;;;5089685;28;19993;-77
2024/01/30 01:04:21;;;;;;;;;;;52.00;2227.20;;;;;;5098778;28;19930;-80
2024/01/30 01:06:47;;;;;;;;;;;52.00;2227.20;;;;;;5096727;28;20006;-78
2024/01/30 01:09:12;;;;;;;;;;;52.00;2227.20;;;;;;5114128;28;19967;-78
2024/01/30 01:11:38;;;;;;;;;;;52.10;2227.20;;;;;;5098715;28;20265;-78
2024/01/30 01:14:04;;;;;;;;;;;52.00;2227.20;;;;;;5098598;28;19904;-77
2024/01/30 01:16:30;;;;;;;;;;;52.00;2227.20;;;;;;5115569;28;19995;-78
2024/01/30 01:18:56;;;;;;;;;;;51.40;2227.20;;;;;;5098770;28;19951;-77
2024/01/30 01:21:21;;;;;;;;;;;26.50;2201.60;;;;;;5098512;28;19911;-80
2024/01/30 01:23:47;;;;;;;;;;;51.20;2227.20;;;;;;5097942;28;19903;-78
2024/01/30 01:26:13;;;;;;;;;;;51.20;2227.20;;;;;;5098726;28;19904;-78
2024/01/30 01:28:41;;;;;;;;;;;26.50;2201.60;;;;;;5098508;28;19919;-80
2024/01/30 01:31:07;;;;;;;;;;;26.20;2201.60;;;;;;5097185;28;19910;-77
2024/01/30 01:33:33;;;;;;;;;;;26.30;2201.60;;;;;;5097952;28;19988;-76
2024/01/30 01:35:59;;;;;;;;;;;26.40;2201.60;;;;;;5097875;28;19907;-77
2024/01/30 01:38:25;;;;;;;;;;;26.50;2201.60;;;;;;5115253;28;20315;-77
2024/01/30 01:40:51;;;;;;;;;;;51.20;2227.20;;;;;;5084369;28;19910;-77
2024/01/30 01:43:16;;;;;;;;;;;51.20;2227.20;;;;;;5098202;28;20292;-77
2024/01/30 01:45:42;;;;;;;;;;;51.30;2227.20;;;;;;5096832;28;19946;-77
2024/01/30 01:48:09;;;;;;;;;;;51.20;2227.20;;;;;;5116144;28;19946;-77
2024/01/30 01:50:35;;;;;;;;;;;26.50;2201.60;;;;;;5097948;28;20357;-77
2024/01/30 01:53:05;;;;;;;;;;;26.50;2201.60;;;;;;5097502;28;20433;-77
2024/01/30 01:55:30;;;;;;;;;;;26.30;2201.60;;;;;;5097458;28;19943;-78
2024/01/30 01:57:56;;;;;;;;;;;26.20;2201.60;;;;;;5116038;28;20284;-77
2024/01/30 02:00:22;;;;;;;;;;;26.20;2201.60;;;;;;5115544;28;19904;-77
2024/01/30 02:02:47;;;;;;;;;;;26.20;2201.60;;;;;;5097084;28;19990;-77
2024/01/30 02:05:14;;;;;;;;;;;26.20;2201.60;;;;;;5097080;28;20432;-78
2024/01/30 02:07:40;;;;;;;;;;;26.10;2201.60;;;;;;5097586;28;20395;-76
2024/01/30 02:10:05;;;;;;;;;;;26.10;2201.60;;;;;;5097230;28;19911;-76
2024/01/30 02:12:31;;;;;;;;;;;26.00;2201.60;;;;;;5097557;28;20289;-78
2024/01/30 02:14:57;;;;;;;;;;;26.10;2201.60;;;;;;5114321;28;20006;-77
2024/01/30 02:17:23;;;;;;;;;;;26.20;2201.60;;;;;;5115351;28;19904;-76
2024/01/30 02:19:49;;;;;;;;;;;26.00;2201.60;;;;;;5097276;28;19949;-78
2024/01/30 02:22:15;;;;;;;;;;;25.90;2201.60;;;;;;5115154;28;19939;-75
2024/01/30 02:24:40;;;;;;;;;;;25.80;2201.60;;;;;;5096907;28;19956;-76
2024/01/30 02:27:06;;;;;;;;;;;25.80;2201.60;;;;;;5115547;28;20406;-77
2024/01/30 02:29:31;;;;;;;;;;;25.80;2201.60;;;;;;5115050;28;19904;-76
2024/01/30 02:31:57;;;;;;;;;;;25.60;2201.60;;;;;;5097194;28;19911;-76
2024/01/30 02:34:23;;;;;;;;;;;0.70;2201.60;;;;;;5095538;28;19908;-78
2024/01/30 02:36:49;;;;;;;;;;;0.90;2201.60;;;;;;5114972;28;20360;-77
2024/01/30 02:39:14;;;;;;;;;;;0.80;2201.60;;;;;;5114316;28;19948;-78
2024/01/30 02:41:40;;;;;;;;;;;0.90;2201.60;;;;;;5115191;28;19911;-76
2024/01/30 02:44:05;;;;;;;;;;;0.90;2201.60;;;;;;5114163;28;20059;-76
2024/01/30 02:46:31;;;;;;;;;;;0.90;2201.60;;;;;;5113801;28;19994;-77
2024/01/30 02:48:57;;;;;;;;;;;0.90;2201.60;;;;;;5096812;28;19912;-76
2024/01/30 02:51:22;;;;;;;;;;;0.90;2201.60;;;;;;5113857;28;19903;-77
2024/01/30 02:53:48;;;;;;;;;;;25.60;2201.60;;;;;;5095992;28;20465;-76
2024/01/30 02:56:14;;;;;;;;;;;25.70;2201.60;;;;;;5114792;28;19910;-76
2024/01/30 02:58:40;;;;;;;;;;;0.90;2201.60;;;;;;5114533;28;19964;-79
2024/01/30 03:01:06;;;;;;;;;;;25.70;2201.60;;;;;;5096595;28;19908;-78
2024/01/30 03:03:31;;;;;;;;;;;0.50;2201.60;;;;;;5113326;28;19958;-76
2024/01/30 03:05:57;;;;;;;;;;;25.60;2201.60;;;;;;5114925;28;19951;-76
2024/01/30 03:08:22;;;;;;;;;;;0.70;2201.60;;;;;;5082645;28;19912;-75
2024/01/30 03:10:48;;;;;;;;;;;0.90;2201.60;;;;;;5114020;28;19961;-78
2024/01/30 03:13:14;;;;;;;;;;;0.80;2201.60;;;;;;5095855;28;19990;-79
2024/01/30 03:15:40;;;;;;;;;;;0.90;2201.60;;;;;;5096355;28;19929;-79
2024/01/30 03:18:05;;;;;;;;;;;0.90;2201.60;;;;;;5114090;28;19904;-80
2024/01/30 03:20:31;;;;;;;;;;;25.60;2201.60;;;;;;5114251;28;19996;-78
2024/01/30 03:22:57;;;;;;;;;;;0.90;2201.60;;;;;;5095919;28;19914;-76
2024/01/30 03:25:22;;;;;;;;;;;0.80;2201.60;;;;;;5095796;28;20311;-77
2024/01/30 03:27:48;;;;;;;;;;;0.70;2201.60;;;;;;5096090;28;19911;-80
2024/01/30 03:30:14;;;;;;;;;;;0.80;2201.60;;;;;;5095961;28;19957;-78
2024/01/30 03:32:40;;;;;;;;;;;0.80;2201.60;;;;;;5113997;28;19907;-76
2024/01/30 03:35:05;;;;;;;;;;;0.90;2201.60;;;;;;5114473;28;19908;-76
2024/01/30 03:37:31;;;;;;;;;;;0.90;2201.60;;;;;;5096155;28;20268;-76
2024/01/30 03:39:56;;;;;;;;;;;0.80;2201.60;;;;;;5113847;28;19915;-76
2024/01/30 03:42:22;;;;;;;;;;;0.90;2201.60;;;;;;5114168;28;19911;-76
2024/01/30 03:44:48;;;;;;;;;;;0.90;2201.60;;;;;;5095786;28;19904;-76
2024/01/30 03:47:13;;;;;;;;;;;0.60;2201.60;;;;;;5095962;28;19956;-76
2024/01/30 03:49:40;;;;;;;;;;;0.50;2201.60;;;;;;5095571;28;19926;-76
2024/01/30 03:52:05;;;;;;;;;;;0.50;2201.60;;;;;;5095551;28;20361;-77
2024/01/30 03:54:31;;;;;;;;;;;0.60;2201.60;;;;;;5096526;28;20002;-76
2024/01/30 03:56:57;;;;;;;;;;;0.50;2201.60;;;;;;5118372;28;20006;-77
2024/01/30 03:59:23;;;;;;;;;;;0.40;2201.60;;;;;;5099742;28;19910;-76
2024/01/30 04:01:50;;;;;;;;;;;0.60;2201.60;;;;;;5099716;28;20333;-76
2024/01/30 04:04:16;;;;;;;;;;;0.70;2201.60;;;;;;5104594;28;19915;-76
2024/01/30 04:06:42;;;;;;;;;;;0.80;2201.60;;;;;;5117580;28;19908;-77
2024/01/30 04:09:07;;;;;;;;;;;0.80;2201.60;;;;;;5118150;28;20329;-78
2024/01/30 04:11:33;;;;;;;;;;;0.70;2201.60;;;;;;5116805;28;20289;-77
2024/01/30 04:13:59;;;;;;;;;;;0.60;2201.60;;;;;;5100123;28;19908;-76
2024/01/30 04:16:24;;;;;;;;;;;0.70;2201.60;;;;;;5099595;28;19907;-76
2024/01/30 04:18:51;;;;;;;;;;;0.70;2201.60;;;;;;5113390;28;19915;-75
2024/01/30 04:21:16;;;;;;;;;;;0.70;2201.60;;;;;;5108008;28;20755;-76
2024/01/30 04:23:42;;;;;;;;;;;0.70;2201.60;;;;;;5098540;28;20033;-76
2024/01/30 04:26:08;;;;;;;;;;;0.50;2201.60;;;;;;5106532;28;20280;-77
2024/01/30 04:28:33;;;;;;;;;;;25.80;2201.60;;;;;;5098538;28;20368;-76
2024/01/30 04:30:59;;;;;;;;;;;0.50;2201.60;;;;;;5115475;28;19908;-75
2024/01/30 04:33:24;;;;;;;;;;;0.20;2201.60;;;;;;5103818;28;20293;-75
2024/01/30 04:35:50;;;;;;;;;;;0.10;2201.60;;;;;;5111095;28;19912;-77
2024/01/30 04:38:16;;;;;;;;;;;0.00;2201.60;;;;;;5085601;28;19943;-76
2024/01/30 04:40:41;;;;;;;;;;;12.90;2201.60;;;;;;5106919;28;19904;-76
2024/01/30 04:43:07;;;;;;;;;;;13.00;2201.60;;;;;;5101934;28;19908;-75
2024/01/30 04:45:32;;;;;;;;;;;13.00;2201.60;;;;;;5114884;28;19949;-76
2024/01/30 04:47:58;;;;;;;;;;;12.90;2201.60;;;;;;5082622;28;19916;-76
2024/01/30 04:50:24;;;;;;;;;;;12.90;2201.60;;;;;;5114271;28;19914;-76
2024/01/30 04:52:49;;;;;;;;;;;12.90;2201.60;;;;;;5106657;28;20457;-76
2024/01/30 04:55:15;;;;;;;;;;;0.00;2201.60;;;;;;5104598;28;20365;-76
2024/01/30 04:57:40;;;;;;;;;;;0.20;2201.60;;;;;;5095772;28;19915;-76
2024/01/30 05:00:06;;;;;;;;;;;0.10;2201.60;;;;;;5110744;28;20343;-76
2024/01/30 05:02:32;;;;;;;;;;;12.90;2201.60;;;;;;5109433;28;19908;-76
2024/01/30 05:04:58;;;;;;;;;;;12.90;2201.60;;;;;;5108547;28;20007;-77
2024/01/30 05:07:24;;;;;;;;;;;0.00;2201.60;;;;;;5091568;28;20265;-76
2024/01/30 05:09:50;;;;;;;;;;;0.10;2201.60;;;;;;5101650;28;19914;-77
2024/01/30 05:12:15;;;;;;;;;;;0.10;2201.60;;;;;;5084627;28;19911;-77
2024/01/30 05:14:41;;;;;;;;;;;0.10;2201.60;;;;;;5088573;28;19955;-75
2024/01/30 05:17:08;;;;;;;;;;;0.10;2201.60;;;;;;5104693;28;19930;-77
2024/01/30 05:19:33;;;;;;;;;;;0.10;2201.60;;;;;;5094674;28;19911;-77
2024/01/30 05:21:59;;;;;;;;;;;0.10;2201.60;;;;;;5085757;28;19910;-77
2024/01/30 05:24:25;;;;;;;;;;;0.10;2201.60;;;;;;5089890;28;19915;-77
2024/01/30 05:26:51;;;;;;;;;;;0.00;2201.60;;;;;;5106146;28;19908;-77
2024/01/30 05:29:16;;;;;;;;;;;0.00;2201.60;;;;;;5104664;28;20266;-76
2024/01/30 05:31:42;;;;;;;;;;;0.10;2201.60;;;;;;5106632;28;19923;-77
2024/01/30 05:34:08;;;;;;;;;;;0.20;2201.60;;;;;;5102286;28;19911;-76
2024/01/30 05:36:34;;;;;;;;;;;0.30;2201.60;;;;;;5099015;28;19918;-76
2024/01/30 05:39:00;;;;;;;;;;;0.20;2201.60;;;;;;5087743;28;19995;-75
2024/01/30 05:41:25;;;;;;;;;;;0.30;2201.60;;;;;;5089428;28;19904;-75
2024/01/30 05:43:51;;;;;;;;;;;0.50;2201.60;;;;;;5080810;28;19957;-75
2024/01/30 05:46:17;;;;;;;;;;;0.60;2201.60;;;;;;5090968;28;19912;-76
2024/01/30 05:48:42;;;;;;;;;;;0.50;2201.60;;;;;;5102929;28;19916;-77
2024/01/30 05:51:08;;;;;;;;;;;0.30;2201.60;;;;;;5083071;28;20353;-76
2024/01/30 05:53:34;;;;;;;;;;;0.30;2201.60;;;;;;5080744;28;19920;-76
2024/01/30 05:56:03;;;;;;;;;;;0.20;2201.60;;;;;;5083950;28;20272;-77
2024/01/30 05:58:29;;;;;;;;;;;0.20;2201.60;;;;;;5106059;28;19911;-76
2024/01/30 06:00:54;;;;;;;;;;;0.20;2201.60;;;;;;5093286;28;19908;-76
2024/01/30 06:03:20;;;;;;;;;;;0.20;2201.60;;;;;;5091227;28;19920;-76
2024/01/30 06:05:46;;;;;;;;;;;0.40;2201.60;;;;;;5087184;28;20258;-76
2024/01/30 06:08:11;;;;;;;;;;;0.30;2201.60;;;;;;5100873;28;20377;-77
2024/01/30 06:10:37;;;;;;;;;;;0.30;2201.60;;;;;;5108274;28;20387;-76
2024/01/30 06:13:03;;;;;;;;;;;0.30;2201.60;;;;;;5090317;28;19955;-77
2024/01/30 06:15:29;;;;;;;;;;;0.30;2201.60;;;;;;5108224;28;19960;-76
2024/01/30 06:17:55;;;;;;;;;;;0.50;2201.60;;;;;;5090847;28;19998;-78
2024/01/30 06:20:21;;;;;;;;;;;0.60;2201.60;;;;;;5086306;28;20007;-76
2024/01/30 06:22:46;;;;;;;;;;;0.60;2201.60;;;;;;5083573;28;20002;-74
2024/01/30 06:25:12;;;;;;;;;;;0.50;2201.60;;;;;;5101415;28;19958;-75
2024/01/30 06:27:38;;;;;;;;;;;0.60;2201.60;;;;;;5102052;28;19923;-76
2024/01/30 06:30:04;;;;;;;;;;;0.40;2201.60;;;;;;5086892;28;20348;-74
2024/01/30 06:32:34;;;;;;;;;;;0.70;2201.60;;;;;;5089611;28;19907;-75
2024/01/30 06:35:00;;;;;;;;;;;0.70;2201.60;;;;;;5089379;28;19919;-75
2024/01/30 06:37:25;;;;;;;;;;;0.80;2201.60;;;;;;5107773;28;19914;-74
2024/01/30 06:39:52;;;;;;;;;;;0.90;2201.60;;;;;;5080023;28;19912;-75
2024/01/30 06:42:18;;;;;;;;;;;25.60;2201.60;;;;;;5080137;28;19915;-74
2024/01/30 06:44:44;;;;;;;;;;;25.70;2201.60;;;;;;5086616;28;20284;-74
2024/01/30 06:47:09;;;;;;;;;;;25.70;2201.60;;;;;;5087301;28;19964;-76
2024/01/30 06:49:38;;;;;;;;;;;25.70;2201.60;;;;;;5082759;28;19965;-74
2024/01/30 06:52:06;;;;;;;;;;;25.70;2201.60;;;;;;5087969;28;19961;-73
2024/01/30 06:54:33;;;;;;;;;;;25.80;2201.60;;;;;;5088509;28;19908;-77
2024/01/30 06:56:58;;;;;;;;;;;25.90;2201.60;;;;;;5078834;28;19908;-75
2024/01/30 06:59:24;;;;;;;;;;;26.00;2201.60;;;;;;5091655;28;19910;-74
2024/01/30 07:01:50;;;;;;;;;;;26.20;2201.60;;;;;;5089587;28;19908;-75
2024/01/30 07:04:16;;;;;;;;;;;26.40;2201.60;;;;;;5089721;28;19947;-73
2024/01/30 07:06:41;;;;;;;;;;;26.20;2201.60;;;;;;5078255;28;19912;-74
2024/01/30 07:09:08;;;;;;;;;;;26.20;2201.60;;;;;;5104772;28;19920;-73
2024/01/30 07:11:34;;;;;;;;;;;26.00;2201.60;;;;;;5097473;28;20250;-73
2024/01/30 07:13:59;;;;;;;;;;;26.00;2201.60;;;;;;5078440;28;19908;-74
2024/01/30 07:16:25;;;;;;;;;;;25.90;2201.60;;;;;;5085634;28;20421;-73
2024/01/30 07:18:50;;;;;;;;;;;26.00;2201.60;;;;;;5082589;28;20045;-74
2024/01/30 07:21:16;;;;;;;;;;;26.00;2201.60;;;;;;5097599;28;19990;-74
2024/01/30 07:23:42;;;;;;;;;;;26.00;2201.60;;;;;;5089367;28;19990;-75
2024/01/30 07:26:08;;;;;;;;;;;26.10;2201.60;;;;;;5099264;28;20258;-75
2024/01/30 07:28:34;;;;;;;;;;;51.50;2227.20;;;;;;5108712;28;19973;-76
2024/01/30 07:31:00;;;;;;;;;;;51.20;2227.20;;;;;;5086621;28;19908;-75
2024/01/30 07:33:25;;;;;;;;;;;51.40;2227.20;;;;;;5108144;28;19914;-76
2024/01/30 07:35:54;;;;;;;;;;;51.60;2227.20;;;;;;5103293;28;19993;-76
2024/01/30 07:38:20;;;;;;;;;;;51.70;2227.20;;;;;;5086870;28;19904;-76
2024/01/30 07:40:45;;;;;;;;;;;51.90;2227.20;;;;;;5078887;28;19904;-74
2024/01/30 07:43:11;;;;;;;;;;;52.00;2227.20;;;;;;5089366;28;19915;-74
2024/01/30 07:45:38;;;;;;;;;;;52.10;2227.20;;;;;;5084606;28;19911;-74
2024/01/30 07:48:04;;;;;;;;;;;52.10;2227.20;;;;;;5078440;28;19939;-76
2024/01/30 07:50:30;;;;;;;;;;;76.90;2227.20;;;;;;5104280;28;19930;-76
2024/01/30 07:52:56;;;;;;;;;;;77.10;2227.20;;;;;;5095921;28;20276;-74
2024/01/30 07:55:24;;;;;;;;;;;77.30;2227.20;;;;;;5098745;28;19990;-74
2024/01/30 07:57:51;;;;;;;;;;;77.70;2227.20;;;;;;5103473;28;19929;-74
2024/01/30 08:00:18;;;;;;;;;;;77.60;2227.20;;;;;;5121305;28;19915;-75
2024/01/30 08:02:43;;;;;;;;;;;77.70;2227.20;;;;;;5122651;28;19931;-77
2024/01/30 08:05:11;;;;;;;;;;;77.70;2227.20;;;;;;5123710;28;20364;-76
2024/01/30 08:07:37;;;;;;;;;;;77.70;2227.20;;;;;;5101116;28;19939;-75
2024/01/30 08:10:02;;;;;;;;;;;77.70;2227.20;;;;;;5117093;28;20422;-76
2024/01/30 08:12:28;;;;;;;;;;;77.50;2227.20;;;;;;5120176;28;20276;-75
2024/01/30 08:14:53;;;;;;;;;;;77.40;2227.20;;;;;;5120785;28;20276;-74
2024/01/30 08:17:19;;;;;;;;;;;77.40;2227.20;;;;;;5114187;28;19907;-74
2024/01/30 08:19:45;;;;;;;;;;;77.40;2227.20;;;;;;5118630;28;20407;-75
2024/01/30 08:22:11;;;;;;;;;;;77.40;2227.20;;;;;;5120346;28;19914;-75
2024/01/30 08:24:37;;;;;;;;;;;77.40;2227.20;;;;;;5121555;28;19919;-75
2024/01/30 08:27:04;;;;;;;;;;;77.50;2227.20;;;;;;5105252;28;20286;-74
2024/01/30 08:29:30;;;;;;;;;;;77.50;2227.20;;;;;;5117205;28;19955;-73
2024/01/30 08:31:56;;;;;;;;;;;77.70;2227.20;;;;;;5106072;28;19945;-74
2024/01/30 08:34:21;;;;;;;;;;;77.70;2227.20;;;;;;5126196;28;19908;-73
2024/01/30 08:36:47;;;;;;;;;;;77.70;2227.20;;;;;;5119551;28;19915;-74
2024/01/30 08:39:13;;;;;;;;;;;102.40;2227.20;;;;;;5122867;28;19907;-74
2024/01/30 08:41:39;;;;;;;;;;;102.40;2227.20;;;;;;5127375;27;19984;-76
2024/01/30 08:44:04;;;;;;;;;;;102.40;2227.20;;;;;;5132101;27;20307;-75
2024/01/30 08:46:30;;;;;;;;;;;102.60;2227.20;;;;;;5106002;27;19911;-77
2024/01/30 08:48:56;;;;;;;;;;;102.80;2227.20;;;;;;5110149;27;19911;-77
2024/01/30 08:51:21;;;;;;;;;;;102.90;2227.20;;;;;;5103056;28;19996;-78
2024/01/30 08:53:47;;;;;;;;;;;103.00;2227.20;;;;;;5114786;27;19926;-78
2024/01/30 08:56:13;;;;;;;;;;;103.10;2227.20;;;;;;5095067;28;19912;-79
2024/01/30 08:58:39;;;;;;;;;;;103.20;2227.20;;;;;;5097255;28;19910;-77
2024/01/30 09:01:05;;;;;;;;;;;128.00;2252.80;;;;;;5080172;28;20419;-76
2024/01/30 09:03:31;;;;;;;;;;;128.10;2252.80;;;;;;5090449;28;19907;-80
2024/01/30 09:05:57;;;;;;;;;;;128.10;2252.80;;;;;;5102494;28;19923;-77
2024/01/30 09:08:22;;;;;;;;;;;128.20;2252.80;;;;;;5107081;28;20002;-79
2024/01/30 09:10:49;;;;;;;;;;;128.30;2252.80;;;;;;5102493;28;19904;-76
2024/01/30 09:13:15;;;;;;;;;;;128.30;2252.80;;;;;;5087101;28;19946;-75
2024/01/30 09:15:41;;;;;;;;;;;128.40;2252.80;;;;;;5105264;28;19943;-78
2024/01/30 09:18:07;;;;;;;;;;;128.40;2252.80;;;;;;5101890;28;19957;-76
2024/01/30 09:20:32;;;;;;;;;;;128.50;2252.80;;;;;;5106301;28;19907;-77
2024/01/30 09:22:58;;;;;;;;;;;128.70;2252.80;;;;;;5087231;28;20272;-76
2024/01/30 09:25:23;;;;;;;;;;;128.80;2252.80;;;;;;5109384;28;20357;-76
2024/01/30 09:27:49;;;;;;;;;;;128.90;2252.80;;;;;;5087757;28;19935;-77
2024/01/30 09:30:15;;;;;;;;;;;128.90;2252.80;;;;;;5091650;28;19914;-76
2024/01/30 09:32:40;;;;;;;;;;;128.90;2252.80;;;;;;5108735;28;19908;-77
2024/01/30 09:35:06;;;;;;;;;;;128.90;2252.80;;;;;;5090885;28;20029;-75
2024/01/30 09:37:32;;;;;;;;;;;128.90;2252.80;;;;;;5087073;28;19931;-76
2024/01/30 09:39:58;;;;;;;;;;;128.90;2252.80;;;;;;5089980;28;19951;-76
2024/01/30 09:42:30;;;;;;;;;;;153.70;2252.80;;;;;;5095498;28;19915;-76
2024/01/30 09:44:56;;;;;;;;;;;154.00;2252.80;;;;;;5087186;28;20006;-76
2024/01/30 09:47:21;;;;;;;;;;;154.10;2252.80;;;;;;5090591;28;20064;-76
2024/01/30 09:49:47;;;;;;;;;;;154.40;2252.80;;;;;;5100574;28;19919;-77
2024/01/30 09:52:13;;;;;;;;;;;179.40;2252.80;;;;;;5105681;28;19917;-76
2024/01/30 09:54:40;;;;;;;;;;;179.30;2252.80;;;;;;5106773;28;19908;-76
2024/01/30 09:57:07;;;;;;;;;;;179.50;2252.80;;;;;;5101183;28;19999;-76
2024/01/30 09:59:32;;;;;;;;;;;179.70;2252.80;;;;;;5093799;28;19908;-75
2024/01/30 10:01:58;;;;;;;;;;;180.00;2252.80;;;;;;5095369;28;20006;-76
2024/01/30 10:04:23;;;;;;;;;;;204.80;2252.80;;;;;;5092014;28;20284;-76
2024/01/30 10:06:50;;;;;;;;;;;180.00;2252.80;;;;;;5105384;28;19965;-77
2024/01/30 10:09:16;;;;;;;;;;;180.10;2252.80;;;;;;5079711;28;19915;-76
2024/01/30 10:11:41;;;;;;;;;;;204.90;2252.80;;;;;;5106296;28;19914;-77
2024/01/30 10:14:07;;;;;;;;;;;204.80;2252.80;;;;;;5090353;28;20010;-77
2024/01/30 10:16:34;;;;;;;;;;;205.10;2252.80;;;;;;5082856;28;19907;-76
2024/01/30 10:19:00;;;;;;;;;;;205.40;2252.80;;;;;;5095283;28;19908;-76
2024/01/30 10:21:25;;;;;;;;;;;230.40;2201.60;;;;;;5085627;28;20357;-77
2024/01/30 10:23:51;;;;;;;;;;;230.60;2201.60;;;;;;5088291;28;19914;-76
2024/01/30 10:26:19;;;;;;;;;;;230.60;2150.40;;;;;;5083642;28;19911;-77
2024/01/30 10:28:45;;;;;;;;;;;231.20;2150.40;;;;;;5083890;28;19912;-76
2024/01/30 10:31:11;;;;;;;;;;;231.20;2099.20;;;;;;5103213;28;19908;-77
2024/01/30 10:33:36;;;;;;;;;;;231.30;2048.00;;;;;;5089426;28;19914;-77
2024/01/30 10:36:06;;;;;;;;;;;231.00;2048.00;;;;;;5086149;28;20292;-77
2024/01/30 10:38:32;;;;;;;;;;;256.10;2073.60;;;;;;5090336;28;19953;-76
2024/01/30 10:40:58;;;;;;;;;;;256.50;2048.00;;;;;;5082399;28;19931;-77
2024/01/30 10:43:30;;;;;;;;;;;256.80;1996.80;;;;;;5082666;28;19972;-78
2024/01/30 10:45:57;;;;;;;;;;;256.80;1920.00;;;;;;5087959;28;20272;-77
2024/01/30 10:48:26;;;;;;;;;;;256.60;1894.40;;;;;;5107144;28;19969;-77
2024/01/30 10:50:54;;;;;;;;;;;256.60;1894.40;;;;;;5085114;28;19908;-77
2024/01/30 10:53:21;;;;;;;;;;;256.60;1868.80;;;;;;5101745;28;19923;-76
2024/01/30 10:55:48;;;;;;;;;;;256.30;1945.60;;;;;;5122343;27;19939;-76
2024/01/30 10:58:14;;;;;;;;;;;256.80;1920.00;;;;;;5117082;27;19917;-77
2024/01/30 11:00:41;;;;;;;;;;;256.90;1843.20;;;;;;5101593;28;19967;-76
2024/01/30 11:03:07;;;;;;;;;;;281.60;1868.80;;;;;;5111454;28;19958;-77
2024/01/30 11:05:33;;;;;;;;;;;256.90;1817.60;;;;;;5107154;28;20402;-77
2024/01/30 11:07:59;;;;;;;;;;;256.80;1817.60;;;;;;5104137;28;19966;-76
2024/01/30 11:10:25;;;;;;;;;;;282.00;1817.60;;;;;;5097741;28;19904;-77
2024/01/30 11:12:51;;;;;;;;;;;282.00;1817.60;;;;;;5102392;28;19996;-76
2024/01/30 11:15:17;;;;;;;;;;;282.20;1843.20;;;;;;5106126;28;20253;-77
2024/01/30 11:17:45;;;;;;;;;;;282.10;1817.60;;;;;;5098820;28;20015;-77
2024/01/30 11:20:15;;;;;;;;;;;282.40;1740.80;;;;;;5098448;28;20276;-77
2024/01/30 11:22:49;;;;;;;;;;;282.30;1792.00;;;;;;5097272;28;20341;-76
2024/01/30 11:25:15;;;;;;;;;;;281.80;1766.40;;;;;;5097937;28;19912;-76
2024/01/30 11:27:41;;;;;;;;;;;281.70;1715.20;;;;;;5101533;28;20314;-76
2024/01/30 11:30:07;;;;;;;;;;;282.00;1740.80;;;;;;5101786;28;19960;-76
2024/01/30 11:32:33;;;;;;;;;;;256.90;1715.20;;;;;;5106209;28;19911;-80
2024/01/30 11:34:59;;;;;;;;;;;281.60;1740.80;;;;;;5105783;28;19916;-76
2024/01/30 11:37:28;;;;;;;;;;;281.60;1715.20;;;;;;5099317;28;20019;-77
2024/01/30 11:39:54;;;;;;;;;;;281.90;1689.60;;;;;;5104699;28;19943;-76
2024/01/30 11:42:21;;;;;;;;;;;281.60;1689.60;;;;;;5104003;28;19962;-76
2024/01/30 11:44:47;;;;;;;;;;;281.80;1740.80;;;;;;5120660;27;19967;-77
2024/01/30 11:47:12;;;;;;;;;;;281.60;1740.80;;;;;;5098100;28;19998;-76
2024/01/30 11:49:38;;;;;;;;;;;282.00;1715.20;;;;;;5102329;28;19995;-77
2024/01/30 11:52:04;;;;;;;;;;;282.30;1715.20;;;;;;5106053;28;19908;-76
2024/01/30 11:54:30;;;;;;;;;;;282.40;1689.60;;;;;;5082166;28;19907;-76
2024/01/30 11:56:55;;;;;;;;;;;282.20;1715.20;;;;;;5082588;28;19994;-77
2024/01/30 11:59:21;;;;;;;;;;;282.40;1766.40;;;;;;5096385;28;19904;-78
2024/01/30 12:01:47;;;;;;;;;;;281.90;1740.80;;;;;;5102432;28;19951;-77
2024/01/30 12:04:13;;;;;;;;;;;281.60;1792.00;;;;;;5087155;28;20222;-78
2024/01/30 12:06:39;;;;;;;;;;;282.00;1792.00;;;;;;5096275;28;19920;-78
2024/01/30 12:09:04;;;;;;;;;;;282.00;1766.40;;;;;;5095156;28;19915;-78
2024/01/30 12:11:30;;;;;;;;;;;281.80;1740.80;;;;;;5086989;28;19914;-76
2024/01/30 12:13:56;;;;;;;;;;;281.70;1766.40;;;;;;5084512;28;19965;-79
2024/01/30 12:16:22;;;;;;;;;;;256.90;1766.40;;;;;;5105964;28;19966;-77
2024/01/30 12:18:48;;;;;;;;;;;256.80;1740.80;;;;;;5095648;28;20250;-76
2024/01/30 12:21:16;;;;;;;;;;;256.90;1766.40;;;;;;5088804;28;19919;-77
2024/01/30 12:23:42;;;;;;;;;;;281.80;1766.40;;;;;;5110624;28;19903;-77
2024/01/30 12:26:07;;;;;;;;;;;256.90;1715.20;;;;;;5092767;28;19914;-78
2024/01/30 12:28:33;;;;;;;;;;;256.90;1740.80;;;;;;5092385;28;19923;-76
2024/01/30 12:31:03;;;;;;;;;;;256.90;1792.00;;;;;;5085310;28;19908;-77
2024/01/30 12:33:28;;;;;;;;;;;281.70;1817.60;;;;;;5082557;28;19907;-77
2024/01/30 12:35:55;;;;;;;;;;;256.80;1766.40;;;;;;5107341;28;19947;-77
2024/01/30 12:38:20;;;;;;;;;;;256.20;1843.20;;;;;;5107727;28;19986;-76
2024/01/30 12:40:46;;;;;;;;;;;256.30;1843.20;;;;;;5093201;28;19994;-77
2024/01/30 12:43:13;;;;;;;;;;;256.70;1817.60;;;;;;5089114;28;20299;-77
2024/01/30 12:45:39;;;;;;;;;;;256.70;1766.40;;;;;;5084309;28;19908;-77
2024/01/30 12:48:04;;;;;;;;;;;256.20;1817.60;;;;;;5089121;28;19938;-76
2024/01/30 12:50:30;;;;;;;;;;;256.30;1817.60;;;;;;5108294;28;20368;-77
2024/01/30 12:52:56;;;;;;;;;;;256.30;1817.60;;;;;;5099758;27;20324;-77
2024/01/30 12:55:21;;;;;;;;;;;256.20;1843.20;;;;;;5105883;27;19914;-77
2024/01/30 12:57:47;;;;;;;;;;;256.30;1868.80;;;;;;5119211;27;19907;-77
2024/01/30 13:00:13;;;;;;;;;;;256.00;1843.20;;;;;;5114547;27;19907;-78
2024/01/30 13:02:38;;;;;;;;;;;231.10;1843.20;;;;;;5102612;28;20345;-77
2024/01/30 13:05:04;;;;;;;;;;;231.10;1894.40;;;;;;5101343;27;19964;-77
2024/01/30 13:07:30;;;;;;;;;;;231.00;1920.00;;;;;;5105849;28;19918;-78
2024/01/30 13:09:56;;;;;;;;;;;231.00;1920.00;;;;;;5128860;27;19907;-78
2024/01/30 13:12:21;;;;;;;;;;;231.00;1920.00;;;;;;5109008;27;19999;-78
2024/01/30 13:14:47;;;;;;;;;;;230.80;1920.00;;;;;;5100939;27;20003;-77
2024/01/30 13:17:13;;;;;;;;;;;230.80;1894.40;;;;;;5119327;27;20357;-77
2024/01/30 13:19:38;;;;;;;;;;;230.90;1843.20;;;;;;5103906;27;19910;-76
2024/01/30 13:22:04;;;;;;;;;;;230.90;1843.20;;;;;;5126759;27;19908;-77
2024/01/30 13:24:29;;;;;;;;;;;230.80;1817.60;;;;;;5116456;27;20364;-77
2024/01/30 13:26:55;;;;;;;;;;;230.60;1766.40;;;;;;5105583;27;19997;-78
2024/01/30 13:29:21;;;;;;;;;;;230.50;1740.80;;;;;;5120080;27;19922;-77
2024/01/30 13:31:46;;;;;;;;;;;230.50;1766.40;;;;;;5106172;27;19950;-78
2024/01/30 13:34:13;;;;;;;;;;;230.50;1766.40;;;;;;5130096;27;19951;-78
2024/01/30 13:36:39;;;;;;;;;;;230.50;1740.80;;;;;;5111272;27;19918;-78
2024/01/30 13:39:08;;;;;;;;;;;230.40;1740.80;;;;;;5107852;27;20328;-78
2024/01/30 13:41:33;;;;;;;;;;;230.40;1766.40;;;;;;5108870;27;19915;-79
2024/01/30 13:43:59;;;;;;;;;;;205.70;1766.40;;;;;;5105952;27;19911;-77